Time;durP1;ratioP1;P1;durP2;ratioP2;P2;SDS_P1;SDS_P2;PMS_P1;PMS_P2;Temp;Humidity;BMP_temperature;BMP_pressure;BME280_temperature;BME280_humidity;BME280_pressure;Samples;Min_cycle;Max_cycle;Signal;HPM_P1;HPM_P2
2023/10/29 00:00:32;;;;;;;;;;;11.90;99.90;;;;;;5104719;28;20642;-70
2023/10/29 00:02:58;;;;;;;;;;;11.90;99.90;;;;;;5103845;28;19940;-70
2023/10/29 00:05:23;;;;;;;;;;;11.90;99.90;;;;;;5108015;28;20012;-70
2023/10/29 00:07:49;;;;;;;;;;;11.80;99.90;;;;;;5105378;28;19911;-70
2023/10/29 00:10:16;;;;;;;;;;;11.90;99.90;;;;;;5111592;27;20437;-70
2023/10/29 00:12:42;;;;;;;;;;;11.90;99.90;;;;;;5093074;28;19907;-69
2023/10/29 00:15:08;;;;;;;;;;;11.80;99.90;;;;;;5100931;28;20038;-69
2023/10/29 00:17:33;;;;;;;;;;;11.90;99.90;;;;;;5107823;28;19974;-69
2023/10/29 00:20:06;;;;;;;;;;;11.90;99.90;;;;;;5098455;28;19973;-70
2023/10/29 00:22:32;;;;;;;;;;;11.90;99.90;;;;;;5116044;27;19911;-70
2023/10/29 00:24:57;;;;;;;;;;;11.90;99.90;;;;;;5108888;27;19920;-70
2023/10/29 00:27:23;;;;;;;;;;;11.90;99.90;;;;;;5108437;28;19987;-70
2023/10/29 00:29:48;;;;;;;;;;;11.90;99.90;;;;;;5116442;27;20260;-70
2023/10/29 00:32:15;;;;;;;;;;;11.90;99.90;;;;;;5108364;28;20225;-70
2023/10/29 00:34:41;;;;;;;;;;;11.90;99.90;;;;;;5108495;28;19962;-70
2023/10/29 00:37:06;;;;;;;;;;;11.90;99.90;;;;;;5105731;27;20353;-70
2023/10/29 00:39:32;;;;;;;;;;;11.90;99.90;;;;;;5108374;28;19914;-70
2023/10/29 00:41:57;;;;;;;;;;;11.90;99.90;;;;;;5101312;28;19912;-70
2023/10/29 00:44:23;;;;;;;;;;;11.90;99.90;;;;;;5094128;27;19912;-70
2023/10/29 00:46:49;;;;;;;;;;;11.90;99.90;;;;;;5097651;28;19912;-70
2023/10/29 00:49:14;;;;;;;;;;;11.90;99.90;;;;;;5108688;28;19919;-70
2023/10/29 00:51:40;;;;;;;;;;;11.90;99.90;;;;;;5108543;27;20419;-70
2023/10/29 00:54:06;;;;;;;;;;;11.90;99.90;;;;;;5101841;28;20003;-70
2023/10/29 00:56:32;;;;;;;;;;;11.90;99.90;;;;;;5108200;28;20323;-70
2023/10/29 00:58:57;;;;;;;;;;;11.90;99.90;;;;;;5090605;28;19924;-70
2023/10/29 01:01:24;;;;;;;;;;;12.00;99.90;;;;;;5099665;28;20006;-70
2023/10/29 01:03:49;;;;;;;;;;;11.90;99.90;;;;;;5106036;28;19912;-70
2023/10/29 01:06:15;;;;;;;;;;;12.00;99.90;;;;;;5120370;27;19912;-70
2023/10/29 01:08:41;;;;;;;;;;;11.90;99.90;;;;;;5104045;28;19915;-70
2023/10/29 01:11:07;;;;;;;;;;;12.00;99.90;;;;;;5099991;28;19920;-70
2023/10/29 01:13:33;;;;;;;;;;;12.00;99.90;;;;;;5102454;28;20388;-69
2023/10/29 01:15:58;;;;;;;;;;;12.00;99.90;;;;;;5107723;28;19923;-69
2023/10/29 01:18:24;;;;;;;;;;;12.00;99.90;;;;;;5118327;27;19961;-70
2023/10/29 01:20:49;;;;;;;;;;;12.00;99.90;;;;;;5112225;27;19919;-70
2023/10/29 01:23:15;;;;;;;;;;;12.00;99.90;;;;;;5116886;27;20344;-70
2023/10/29 01:25:41;;;;;;;;;;;12.00;99.90;;;;;;5114490;27;19915;-70
2023/10/29 01:28:07;;;;;;;;;;;11.90;99.90;;;;;;5111641;28;19911;-70
2023/10/29 01:30:33;;;;;;;;;;;12.00;99.90;;;;;;5111581;27;19912;-70
2023/10/29 01:32:59;;;;;;;;;;;12.00;99.90;;;;;;5111288;28;19930;-70
2023/10/29 01:35:24;;;;;;;;;;;12.00;99.90;;;;;;5112065;28;20284;-70
2023/10/29 01:37:51;;;;;;;;;;;11.90;99.90;;;;;;5108434;28;19931;-70
2023/10/29 01:40:16;;;;;;;;;;;12.00;99.90;;;;;;5111979;28;19908;-70
2023/10/29 01:42:43;;;;;;;;;;;12.00;99.90;;;;;;5111380;27;19914;-70
2023/10/29 01:45:10;;;;;;;;;;;12.00;99.90;;;;;;5111728;28;19915;-70
2023/10/29 01:47:35;;;;;;;;;;;12.00;99.90;;;;;;5111512;28;19915;-70
2023/10/29 01:50:01;;;;;;;;;;;12.00;99.90;;;;;;5094434;27;19911;-69
2023/10/29 01:52:26;;;;;;;;;;;12.00;99.90;;;;;;5118044;27;19907;-70
2023/10/29 01:54:52;;;;;;;;;;;12.00;99.90;;;;;;5106405;27;19915;-70
2023/10/29 01:57:17;;;;;;;;;;;12.00;99.90;;;;;;5111708;28;19957;-70
2023/10/29 01:59:43;;;;;;;;;;;12.00;99.90;;;;;;5106623;28;19930;-70
2023/10/29 02:02:08;;;;;;;;;;;12.00;99.90;;;;;;5099406;28;19938;-70
2023/10/29 02:04:34;;;;;;;;;;;12.00;99.90;;;;;;5113331;27;19915;-70
2023/10/29 02:06:59;;;;;;;;;;;12.00;99.90;;;;;;5110039;27;19998;-70
2023/10/29 02:09:25;;;;;;;;;;;12.00;99.90;;;;;;5115718;27;19930;-70
2023/10/29 02:11:51;;;;;;;;;;;12.00;99.90;;;;;;5108329;28;19957;-70
2023/10/29 02:14:16;;;;;;;;;;;12.00;99.90;;;;;;5102458;27;19964;-70
2023/10/29 02:16:42;;;;;;;;;;;12.00;99.90;;;;;;5110611;28;19908;-70
2023/10/29 02:19:08;;;;;;;;;;;12.00;99.90;;;;;;5105327;28;19958;-70
2023/10/29 02:21:34;;;;;;;;;;;12.00;99.90;;;;;;5098414;28;19923;-70
2023/10/29 02:24:01;;;;;;;;;;;12.00;99.90;;;;;;5105143;27;19916;-70
2023/10/29 02:26:26;;;;;;;;;;;12.00;99.90;;;;;;5115744;27;19923;-70
2023/10/29 02:28:52;;;;;;;;;;;12.00;99.90;;;;;;5109019;28;20006;-70
2023/10/29 02:31:20;;;;;;;;;;;12.00;99.90;;;;;;5110410;28;19915;-70
2023/10/29 02:33:46;;;;;;;;;;;12.00;99.90;;;;;;5108526;27;19908;-70
2023/10/29 02:36:12;;;;;;;;;;;12.00;99.90;;;;;;5119021;27;19930;-70
2023/10/29 02:38:37;;;;;;;;;;;12.00;99.90;;;;;;5107321;28;19915;-70
2023/10/29 02:41:06;;;;;;;;;;;12.00;99.90;;;;;;5101353;28;19912;-70
2023/10/29 02:43:32;;;;;;;;;;;12.00;99.90;;;;;;5103921;27;19947;-70
2023/10/29 02:45:58;;;;;;;;;;;12.00;99.90;;;;;;5098928;28;19954;-70
2023/10/29 02:48:24;;;;;;;;;;;12.00;99.90;;;;;;5109649;28;20303;-70
2023/10/29 02:50:51;;;;;;;;;;;12.00;99.90;;;;;;5109717;28;20276;-70
2023/10/29 02:53:17;;;;;;;;;;;12.00;99.90;;;;;;5109712;28;19911;-70
2023/10/29 02:55:43;;;;;;;;;;;12.00;99.90;;;;;;5108830;27;19930;-70
2023/10/29 02:58:08;;;;;;;;;;;12.00;99.90;;;;;;5112865;27;19912;-70
2023/10/29 03:00:34;;;;;;;;;;;12.00;99.90;;;;;;5097613;28;20497;-70
2023/10/29 03:02:59;;;;;;;;;;;12.00;99.90;;;;;;5107758;27;19929;-69
2023/10/29 03:05:25;;;;;;;;;;;12.00;99.90;;;;;;5114052;27;19912;-69
2023/10/29 03:07:50;;;;;;;;;;;12.00;99.90;;;;;;5106257;28;19919;-69
2023/10/29 03:10:16;;;;;;;;;;;12.00;99.90;;;;;;5122332;27;19943;-69
2023/10/29 03:12:41;;;;;;;;;;;12.00;99.90;;;;;;5115427;27;20019;-69
2023/10/29 03:15:07;;;;;;;;;;;12.00;99.90;;;;;;5108607;28;19912;-70
2023/10/29 03:17:33;;;;;;;;;;;12.00;99.90;;;;;;5117807;27;19911;-70
2023/10/29 03:19:58;;;;;;;;;;;12.00;99.90;;;;;;5109567;28;19916;-70
2023/10/29 03:22:24;;;;;;;;;;;12.00;99.90;;;;;;5114118;27;19957;-70
2023/10/29 03:24:50;;;;;;;;;;;12.00;99.90;;;;;;5111547;27;20356;-70
2023/10/29 03:27:15;;;;;;;;;;;12.00;99.90;;;;;;5109599;27;19996;-70
2023/10/29 03:29:41;;;;;;;;;;;12.00;99.90;;;;;;5125802;27;19911;-70
2023/10/29 03:32:06;;;;;;;;;;;12.00;99.90;;;;;;5117265;27;19912;-70
2023/10/29 03:34:32;;;;;;;;;;;12.00;99.90;;;;;;5109281;28;19912;-70
2023/10/29 03:36:57;;;;;;;;;;;12.00;99.90;;;;;;5103992;28;19911;-70
2023/10/29 03:39:23;;;;;;;;;;;12.00;99.90;;;;;;5102973;28;19984;-70
2023/10/29 03:41:48;;;;;;;;;;;12.00;99.90;;;;;;5108906;27;19912;-69
2023/10/29 03:44:14;;;;;;;;;;;12.00;99.90;;;;;;5111826;27;19915;-70
2023/10/29 03:46:40;;;;;;;;;;;12.00;99.90;;;;;;5109411;28;20587;-70
2023/10/29 03:49:06;;;;;;;;;;;12.00;99.90;;;;;;5111809;27;19946;-70
2023/10/29 03:51:31;;;;;;;;;;;12.00;99.90;;;;;;5112380;27;20680;-70
2023/10/29 03:53:57;;;;;;;;;;;12.00;99.90;;;;;;5103525;27;19912;-70
2023/10/29 03:56:23;;;;;;;;;;;12.00;99.90;;;;;;5122808;27;19919;-70
2023/10/29 03:58:48;;;;;;;;;;;12.00;99.90;;;;;;5104555;28;19920;-70
2023/10/29 04:01:14;;;;;;;;;;;12.00;99.90;;;;;;5115251;27;19945;-70
2023/10/29 04:03:40;;;;;;;;;;;12.00;99.90;;;;;;5108363;28;19911;-70
2023/10/29 04:06:09;;;;;;;;;;;12.10;99.90;;;;;;5108209;28;19916;-69
2023/10/29 04:08:35;;;;;;;;;;;12.10;99.90;;;;;;5107930;28;19907;-69
2023/10/29 04:11:00;;;;;;;;;;;12.10;99.90;;;;;;5119318;27;20425;-69
2023/10/29 04:13:27;;;;;;;;;;;12.10;99.90;;;;;;5113900;27;19912;-69
2023/10/29 04:15:52;;;;;;;;;;;12.10;99.90;;;;;;5107977;28;19908;-69
2023/10/29 04:18:19;;;;;;;;;;;12.10;99.90;;;;;;5113075;27;20321;-69
2023/10/29 04:20:45;;;;;;;;;;;12.10;99.90;;;;;;5110884;27;20265;-69
2023/10/29 04:23:10;;;;;;;;;;;12.10;99.90;;;;;;5116266;27;19914;-69
2023/10/29 04:25:36;;;;;;;;;;;12.10;99.90;;;;;;5108026;28;20441;-69
2023/10/29 04:28:01;;;;;;;;;;;12.10;99.90;;;;;;5114512;27;19982;-69
2023/10/29 04:30:27;;;;;;;;;;;12.10;99.90;;;;;;5104163;28;19915;-69
2023/10/29 04:32:52;;;;;;;;;;;12.10;99.90;;;;;;5107054;28;19908;-69
2023/10/29 04:35:18;;;;;;;;;;;12.10;99.90;;;;;;5106396;28;19992;-70
2023/10/29 04:37:44;;;;;;;;;;;12.10;99.90;;;;;;5104109;28;20010;-70
2023/10/29 04:40:09;;;;;;;;;;;12.10;99.90;;;;;;5103623;27;19911;-70
2023/10/29 04:42:35;;;;;;;;;;;12.10;99.90;;;;;;5112705;27;20359;-70
2023/10/29 04:45:00;;;;;;;;;;;12.10;99.90;;;;;;5127646;27;21228;-70
2023/10/29 04:47:26;;;;;;;;;;;12.10;99.90;;;;;;5119545;27;19911;-70
2023/10/29 04:49:51;;;;;;;;;;;12.10;99.90;;;;;;5109408;27;19911;-70
2023/10/29 04:52:17;;;;;;;;;;;12.10;99.90;;;;;;5116167;27;20380;-70
2023/10/29 04:54:43;;;;;;;;;;;12.20;99.90;;;;;;5106869;27;19907;-70
2023/10/29 04:57:08;;;;;;;;;;;12.20;99.90;;;;;;5114431;27;19911;-70
2023/10/29 04:59:36;;;;;;;;;;;12.10;99.90;;;;;;5109552;27;20408;-70
2023/10/29 05:02:03;;;;;;;;;;;12.20;99.90;;;;;;5119014;27;20323;-69
2023/10/29 05:04:29;;;;;;;;;;;12.20;99.90;;;;;;5119313;27;20416;-69
2023/10/29 05:06:54;;;;;;;;;;;12.20;99.90;;;;;;5112244;27;20014;-70
2023/10/29 05:09:20;;;;;;;;;;;12.20;99.90;;;;;;5113996;27;19908;-70
2023/10/29 05:11:45;;;;;;;;;;;12.20;99.90;;;;;;5112435;27;19912;-70
2023/10/29 05:14:11;;;;;;;;;;;12.20;99.90;;;;;;5117264;27;19912;-70
2023/10/29 05:16:36;;;;;;;;;;;12.20;99.90;;;;;;5114062;27;20318;-70
2023/10/29 05:19:02;;;;;;;;;;;12.20;99.90;;;;;;5113345;27;19973;-70
2023/10/29 05:21:28;;;;;;;;;;;12.20;99.90;;;;;;5114249;27;19958;-70
2023/10/29 05:23:53;;;;;;;;;;;12.20;99.90;;;;;;5115206;27;20624;-70
2023/10/29 05:26:19;;;;;;;;;;;12.20;99.90;;;;;;5119298;27;19995;-69
2023/10/29 05:28:44;;;;;;;;;;;12.20;99.90;;;;;;5108412;27;20012;-69
2023/10/29 05:31:10;;;;;;;;;;;12.20;99.90;;;;;;5113385;27;19916;-69
2023/10/29 05:33:36;;;;;;;;;;;12.20;99.90;;;;;;5113529;27;19912;-69
2023/10/29 05:36:02;;;;;;;;;;;12.20;99.90;;;;;;5112928;27;19939;-70
2023/10/29 05:38:27;;;;;;;;;;;12.20;99.90;;;;;;5112114;27;19918;-70
2023/10/29 05:40:53;;;;;;;;;;;12.20;99.90;;;;;;5121898;27;19965;-70
2023/10/29 05:43:18;;;;;;;;;;;12.20;99.90;;;;;;5116767;27;19912;-69
2023/10/29 05:45:45;;;;;;;;;;;12.30;99.90;;;;;;5113263;27;19912;-69
2023/10/29 05:48:10;;;;;;;;;;;12.20;99.90;;;;;;5112486;27;20002;-70
2023/10/29 05:50:37;;;;;;;;;;;12.20;99.90;;;;;;5114012;27;19942;-70
2023/10/29 05:53:03;;;;;;;;;;;12.30;99.90;;;;;;5104719;27;19915;-70
2023/10/29 05:55:29;;;;;;;;;;;12.20;99.90;;;;;;5122339;27;19916;-69
2023/10/29 05:57:55;;;;;;;;;;;12.30;99.90;;;;;;5121466;27;19934;-69
2023/10/29 06:00:21;;;;;;;;;;;12.20;99.90;;;;;;5119134;27;19922;-70
2023/10/29 06:02:46;;;;;;;;;;;12.30;99.90;;;;;;5114103;27;20421;-70
2023/10/29 06:05:12;;;;;;;;;;;12.30;99.90;;;;;;5110683;27;19912;-70
2023/10/29 06:07:42;;;;;;;;;;;12.30;99.90;;;;;;5115458;27;19916;-70
2023/10/29 06:10:08;;;;;;;;;;;12.30;99.90;;;;;;5110612;27;19920;-70
2023/10/29 06:12:35;;;;;;;;;;;12.30;99.90;;;;;;5117568;27;20349;-70
2023/10/29 06:15:03;;;;;;;;;;;12.30;99.90;;;;;;5110261;27;20220;-70
2023/10/29 06:17:29;;;;;;;;;;;12.30;99.90;;;;;;5110598;27;20338;-70
2023/10/29 06:19:54;;;;;;;;;;;12.30;99.90;;;;;;5109903;28;19908;-70
2023/10/29 06:22:20;;;;;;;;;;;12.30;99.90;;;;;;5110329;28;20280;-69
2023/10/29 06:24:45;;;;;;;;;;;12.30;99.90;;;;;;5118444;27;19907;-69
2023/10/29 06:27:11;;;;;;;;;;;12.30;99.90;;;;;;5110265;28;19916;-69
2023/10/29 06:29:38;;;;;;;;;;;12.30;99.90;;;;;;5105473;27;20299;-69
2023/10/29 06:32:04;;;;;;;;;;;12.30;99.90;;;;;;5101553;28;19915;-69
2023/10/29 06:34:29;;;;;;;;;;;12.30;99.90;;;;;;5108764;28;19957;-69
2023/10/29 06:36:54;;;;;;;;;;;12.40;99.90;;;;;;5109653;28;19907;-70
2023/10/29 06:39:20;;;;;;;;;;;12.30;99.90;;;;;;5116682;27;19930;-69
2023/10/29 06:41:45;;;;;;;;;;;12.30;99.90;;;;;;5109660;28;19939;-69
2023/10/29 06:44:11;;;;;;;;;;;12.30;99.90;;;;;;5111625;27;20391;-69
2023/10/29 06:46:36;;;;;;;;;;;12.30;99.90;;;;;;5109894;27;19931;-69
2023/10/29 06:49:02;;;;;;;;;;;12.30;99.90;;;;;;5109205;28;19943;-69
2023/10/29 06:51:28;;;;;;;;;;;12.30;99.90;;;;;;5099238;27;19923;-70
2023/10/29 06:53:53;;;;;;;;;;;12.40;99.90;;;;;;5101946;27;20063;-69
2023/10/29 06:56:19;;;;;;;;;;;12.40;99.90;;;;;;5105358;27;19912;-70
2023/10/29 06:58:44;;;;;;;;;;;12.40;99.90;;;;;;5103802;28;19912;-70
2023/10/29 07:01:10;;;;;;;;;;;12.40;99.90;;;;;;5109189;28;19908;-69
2023/10/29 07:03:36;;;;;;;;;;;12.40;99.90;;;;;;5116605;27;19911;-69
2023/10/29 07:06:08;;;;;;;;;;;12.40;99.90;;;;;;5111945;27;19916;-69
2023/10/29 07:08:34;;;;;;;;;;;12.40;99.90;;;;;;5111340;27;19919;-69
2023/10/29 07:11:00;;;;;;;;;;;12.40;99.90;;;;;;5106650;27;20030;-69
2023/10/29 07:13:26;;;;;;;;;;;12.40;99.90;;;;;;5099798;27;19908;-69
2023/10/29 07:15:52;;;;;;;;;;;12.40;99.90;;;;;;5088340;28;20285;-69
2023/10/29 07:18:18;;;;;;;;;;;12.40;99.90;;;;;;5097253;27;19912;-69
2023/10/29 07:20:43;;;;;;;;;;;12.40;99.90;;;;;;5098519;28;19928;-69
2023/10/29 07:23:09;;;;;;;;;;;12.40;99.90;;;;;;5108279;28;19939;-70
2023/10/29 07:25:34;;;;;;;;;;;12.40;99.90;;;;;;5101097;28;19912;-69
2023/10/29 07:28:00;;;;;;;;;;;12.40;99.90;;;;;;5098557;28;19919;-69
2023/10/29 07:30:26;;;;;;;;;;;12.40;99.90;;;;;;5108466;28;19964;-69
2023/10/29 07:32:51;;;;;;;;;;;12.40;99.90;;;;;;5105819;28;19920;-70
2023/10/29 07:35:16;;;;;;;;;;;12.40;99.90;;;;;;5104562;28;19918;-69
2023/10/29 07:37:42;;;;;;;;;;;12.40;99.90;;;;;;5104442;28;19988;-69
2023/10/29 07:40:08;;;;;;;;;;;12.40;99.90;;;;;;5108204;28;20608;-69
2023/10/29 07:42:33;;;;;;;;;;;12.40;99.90;;;;;;5108064;27;19922;-69
2023/10/29 07:44:59;;;;;;;;;;;12.40;99.90;;;;;;5092379;27;20019;-69
2023/10/29 07:47:24;;;;;;;;;;;12.40;99.90;;;;;;5121939;27;19915;-69
2023/10/29 07:49:50;;;;;;;;;;;12.40;99.90;;;;;;5109503;27;20002;-69
2023/10/29 07:52:15;;;;;;;;;;;12.40;99.90;;;;;;5096479;27;20000;-69
2023/10/29 07:54:41;;;;;;;;;;;12.40;99.90;;;;;;5096911;28;20281;-69
2023/10/29 07:57:07;;;;;;;;;;;12.40;99.90;;;;;;5110967;27;20015;-69
2023/10/29 07:59:34;;;;;;;;;;;12.40;99.90;;;;;;5107659;27;20082;-69
2023/10/29 08:01:59;;;;;;;;;;;12.40;99.90;;;;;;5115614;27;19919;-69
2023/10/29 08:04:28;;;;;;;;;;;12.40;99.90;;;;;;5107804;28;20345;-69
2023/10/29 08:06:54;;;;;;;;;;;12.40;99.90;;;;;;5103236;28;20356;-69
2023/10/29 08:09:19;;;;;;;;;;;12.40;99.90;;;;;;5116038;27;19907;-69
2023/10/29 08:11:45;;;;;;;;;;;12.50;99.90;;;;;;5106874;27;20424;-69
2023/10/29 08:14:10;;;;;;;;;;;12.50;99.90;;;;;;5118773;27;19915;-69
2023/10/29 08:16:36;;;;;;;;;;;12.50;99.90;;;;;;5119048;27;19934;-69
2023/10/29 08:19:02;;;;;;;;;;;12.50;99.90;;;;;;5106433;27;19980;-69
2023/10/29 08:21:27;;;;;;;;;;;12.50;99.90;;;;;;5106197;28;20024;-69
2023/10/29 08:23:53;;;;;;;;;;;12.50;99.90;;;;;;5106211;28;19911;-69
2023/10/29 08:26:18;;;;;;;;;;;12.50;99.90;;;;;;5099097;28;19966;-69
2023/10/29 08:28:44;;;;;;;;;;;12.50;99.90;;;;;;5107336;28;19957;-69
2023/10/29 08:31:13;;;;;;;;;;;12.50;99.90;;;;;;5107148;28;20365;-69
2023/10/29 08:33:39;;;;;;;;;;;12.50;99.90;;;;;;5106758;28;19919;-69
2023/10/29 08:36:04;;;;;;;;;;;12.50;99.90;;;;;;5114247;27;19919;-69
2023/10/29 08:38:30;;;;;;;;;;;12.50;99.90;;;;;;5103630;28;19919;-69
2023/10/29 08:40:56;;;;;;;;;;;12.50;99.90;;;;;;5107231;28;19998;-69
2023/10/29 08:43:21;;;;;;;;;;;12.50;99.90;;;;;;5110822;27;19912;-69
2023/10/29 08:45:47;;;;;;;;;;;12.60;99.90;;;;;;5090451;28;20018;-69
2023/10/29 08:48:12;;;;;;;;;;;12.60;99.90;;;;;;5099106;28;19923;-69
2023/10/29 08:50:38;;;;;;;;;;;12.60;99.90;;;;;;5106314;28;19968;-69
2023/10/29 08:53:03;;;;;;;;;;;12.60;99.90;;;;;;5115624;27;20000;-69
2023/10/29 08:55:29;;;;;;;;;;;12.60;99.90;;;;;;5107353;28;19914;-69
2023/10/29 08:57:55;;;;;;;;;;;12.60;99.90;;;;;;5114521;27;19908;-69
2023/10/29 09:00:20;;;;;;;;;;;12.70;99.90;;;;;;5109237;27;19915;-69
2023/10/29 09:02:46;;;;;;;;;;;12.70;99.90;;;;;;5106976;28;19976;-69
2023/10/29 09:05:12;;;;;;;;;;;12.70;99.90;;;;;;5099417;28;19912;-69
2023/10/29 09:07:38;;;;;;;;;;;12.80;99.90;;;;;;5101938;28;20034;-69
2023/10/29 09:10:03;;;;;;;;;;;12.80;99.90;;;;;;5105667;28;19915;-69
2023/10/29 09:12:29;;;;;;;;;;;12.80;99.90;;;;;;5099207;28;19911;-69
2023/10/29 09:14:55;;;;;;;;;;;12.80;99.90;;;;;;5096598;28;20377;-69
2023/10/29 09:17:20;;;;;;;;;;;12.80;99.90;;;;;;5099023;28;20516;-69
2023/10/29 09:19:46;;;;;;;;;;;12.90;99.90;;;;;;5102217;28;20390;-69
2023/10/29 09:22:11;;;;;;;;;;;12.90;99.90;;;;;;5106202;28;20283;-69
2023/10/29 09:24:37;;;;;;;;;;;12.90;99.90;;;;;;5106018;28;19915;-69
2023/10/29 09:27:02;;;;;;;;;;;12.90;99.90;;;;;;5097997;28;19971;-70
2023/10/29 09:29:31;;;;;;;;;;;13.00;99.90;;;;;;5112349;27;20408;-69
2023/10/29 09:31:56;;;;;;;;;;;13.00;99.90;;;;;;5105968;28;19918;-69
2023/10/29 09:34:22;;;;;;;;;;;13.00;99.90;;;;;;5106481;28;19912;-69
2023/10/29 09:36:47;;;;;;;;;;;13.00;99.90;;;;;;5106828;28;19911;-69
2023/10/29 09:39:13;;;;;;;;;;;13.00;99.90;;;;;;5117718;27;19915;-69
2023/10/29 09:41:39;;;;;;;;;;;13.00;99.90;;;;;;5105675;28;19911;-69
2023/10/29 09:44:10;;;;;;;;;;;13.00;99.90;;;;;;5113172;27;20221;-69
2023/10/29 09:46:36;;;;;;;;;;;13.00;99.90;;;;;;5109992;28;19911;-70
2023/10/29 09:49:02;;;;;;;;;;;13.00;99.90;;;;;;5098703;27;20421;-69
2023/10/29 09:51:29;;;;;;;;;;;13.10;99.90;;;;;;5103613;28;19912;-69
2023/10/29 09:53:57;;;;;;;;;;;13.10;99.90;;;;;;5102561;28;19916;-69
2023/10/29 09:56:24;;;;;;;;;;;13.10;99.90;;;;;;5105364;28;19908;-69
2023/10/29 09:58:49;;;;;;;;;;;13.10;99.90;;;;;;5107571;27;19920;-69
2023/10/29 10:01:15;;;;;;;;;;;13.20;99.90;;;;;;5105041;27;19915;-69
2023/10/29 10:03:40;;;;;;;;;;;13.20;99.90;;;;;;5102320;27;20003;-69
2023/10/29 10:06:06;;;;;;;;;;;13.20;99.90;;;;;;5108933;27;19915;-69
2023/10/29 10:08:33;;;;;;;;;;;13.20;99.90;;;;;;5109648;27;20361;-70
2023/10/29 10:10:59;;;;;;;;;;;13.30;99.90;;;;;;5108567;27;19922;-70
2023/10/29 10:13:41;;;;;;;;;;;13.30;99.90;;;;;;5110025;27;19911;-70
2023/10/29 10:16:07;;;;;;;;;;;13.40;99.90;;;;;;5107188;28;19912;-69
2023/10/29 10:18:59;;;;;;;;;;;13.40;99.90;;;;;;5108384;28;19911;-69
2023/10/29 10:21:26;;;;;;;;;;;13.50;99.90;;;;;;5106093;27;19995;-69
2023/10/29 10:23:56;;;;;;;;;;;13.50;99.90;;;;;;5108505;27;19961;-69
2023/10/29 10:26:32;;;;;;;;;;;13.60;99.90;;;;;;5106603;28;20533;-69
2023/10/29 10:28:58;;;;;;;;;;;13.60;99.90;;;;;;5101700;28;19912;-69
2023/10/29 10:31:36;;;;;;;;;;;13.60;99.90;;;;;;5107569;28;19911;-69
2023/10/29 10:34:08;;;;;;;;;;;13.60;99.90;;;;;;5107175;27;19957;-69
2023/10/29 10:36:33;;;;;;;;;;;13.60;99.90;;;;;;5106203;28;20214;-69
2023/10/29 10:38:59;;;;;;;;;;;13.60;99.90;;;;;;5098337;28;19966;-69
2023/10/29 10:41:25;;;;;;;;;;;13.60;99.90;;;;;;5108899;28;19947;-69
2023/10/29 10:44:07;;;;;;;;;;;13.60;99.90;;;;;;5107446;27;19912;-69
2023/10/29 10:46:33;;;;;;;;;;;13.70;99.90;;;;;;5108942;28;19915;-69
2023/10/29 10:49:00;;;;;;;;;;;13.70;99.90;;;;;;5099736;28;19916;-69
2023/10/29 10:51:25;;;;;;;;;;;13.70;99.90;;;;;;5107890;27;19963;-69
2023/10/29 10:53:51;;;;;;;;;;;13.80;99.90;;;;;;5106415;27;19977;-69
2023/10/29 10:56:17;;;;;;;;;;;13.80;99.90;;;;;;5131954;27;19994;-69
2023/10/29 10:58:44;;;;;;;;;;;13.90;99.90;;;;;;5106822;28;19912;-69
2023/10/29 11:01:10;;;;;;;;;;;13.90;99.90;;;;;;5107087;28;19915;-69
2023/10/29 11:03:35;;;;;;;;;;;14.00;99.90;;;;;;5105968;28;19922;-69
2023/10/29 11:06:01;;;;;;;;;;;14.10;99.90;;;;;;5105319;28;20042;-69
2023/10/29 11:08:27;;;;;;;;;;;14.20;99.90;;;;;;5103093;28;19918;-69
2023/10/29 11:10:53;;;;;;;;;;;14.20;99.90;;;;;;5105310;28;19915;-70
2023/10/29 11:13:20;;;;;;;;;;;14.30;99.90;;;;;;5109252;27;19918;-70
2023/10/29 11:15:49;;;;;;;;;;;14.30;99.90;;;;;;5107513;28;19908;-70
2023/10/29 11:18:25;;;;;;;;;;;14.30;99.90;;;;;;5103838;28;19918;-69
2023/10/29 11:20:51;;;;;;;;;;;14.30;99.90;;;;;;5107405;28;19977;-69
2023/10/29 11:23:22;;;;;;;;;;;14.30;99.90;;;;;;5104416;28;19912;-69
2023/10/29 11:25:47;;;;;;;;;;;14.40;99.90;;;;;;5105111;28;20090;-69
2023/10/29 11:28:36;;;;;;;;;;;14.50;99.90;;;;;;5103245;28;20584;-69
2023/10/29 11:31:15;;;;;;;;;;;14.50;99.90;;;;;;5096255;28;19931;-69
2023/10/29 11:34:01;;;;;;;;;;;14.50;99.90;;;;;;5105120;28;20007;-69
2023/10/29 11:36:30;;;;;;;;;;;14.60;99.90;;;;;;5083209;28;20439;-69
2023/10/29 11:39:22;;;;;;;;;;;14.60;99.90;;;;;;5107108;27;19911;-69
2023/10/29 11:41:52;;;;;;;;;;;14.60;99.90;;;;;;5106483;28;19912;-69
2023/10/29 11:44:18;;;;;;;;;;;14.70;99.90;;;;;;5101714;28;19912;-69
2023/10/29 11:46:58;;;;;;;;;;;14.70;99.90;;;;;;5101129;27;20461;-69
2023/10/29 11:49:24;;;;;;;;;;;14.70;99.90;;;;;;5106210;27;19919;-70
2023/10/29 11:51:54;;;;;;;;;;;14.70;99.90;;;;;;5099904;28;19908;-69
2023/10/29 11:54:20;;;;;;;;;;;14.70;99.90;;;;;;5104937;28;19912;-70
2023/10/29 11:56:46;;;;;;;;;;;14.70;99.90;;;;;;5106859;28;20369;-70
2023/10/29 11:59:12;;;;;;;;;;;14.70;99.90;;;;;;5105997;28;20364;-70
2023/10/29 12:01:38;;;;;;;;;;;14.70;99.90;;;;;;5105409;28;19923;-70
2023/10/29 12:04:04;;;;;;;;;;;14.60;99.90;;;;;;5104486;28;20337;-69
2023/10/29 12:06:45;;;;;;;;;;;14.60;99.90;;;;;;5108031;27;19976;-69
2023/10/29 12:09:14;;;;;;;;;;;14.60;99.90;;;;;;5104090;28;20380;-70
2023/10/29 12:11:39;;;;;;;;;;;14.60;99.90;;;;;;5104948;28;19916;-70
2023/10/29 12:14:05;;;;;;;;;;;14.60;99.90;;;;;;5103063;28;19943;-70
2023/10/29 12:16:31;;;;;;;;;;;14.50;99.90;;;;;;5106514;28;20030;-70
2023/10/29 12:18:56;;;;;;;;;;;14.50;99.90;;;;;;5104957;27;19968;-70
2023/10/29 12:21:22;;;;;;;;;;;14.50;99.90;;;;;;5110787;27;20272;-70
2023/10/29 12:23:49;;;;;;;;;;;14.50;99.90;;;;;;5106535;28;20002;-70
2023/10/29 12:26:14;;;;;;;;;;;14.50;99.90;;;;;;5106629;27;19916;-70
2023/10/29 12:28:40;;;;;;;;;;;14.50;99.90;;;;;;5109021;27;19987;-70
2023/10/29 12:31:06;;;;;;;;;;;14.40;99.90;;;;;;5107105;28;19911;-70
2023/10/29 12:33:33;;;;;;;;;;;14.40;99.90;;;;;;5106026;27;19931;-70
2023/10/29 12:35:59;;;;;;;;;;;14.40;99.90;;;;;;5102986;28;19920;-70
2023/10/29 12:38:25;;;;;;;;;;;14.30;99.90;;;;;;5130512;27;20450;-70
2023/10/29 12:41:12;;;;;;;;;;;14.30;99.90;;;;;;5111723;27;19915;-70
2023/10/29 12:43:38;;;;;;;;;;;14.30;99.90;;;;;;5106175;28;20395;-70
2023/10/29 12:46:07;;;;;;;;;;;14.20;99.90;;;;;;5106057;27;19916;-70
2023/10/29 12:48:33;;;;;;;;;;;14.20;99.90;;;;;;5106672;28;19962;-70
2023/10/29 12:51:00;;;;;;;;;;;14.20;99.90;;;;;;5107012;28;19912;-70
2023/10/29 12:53:29;;;;;;;;;;;14.10;99.90;;;;;;5107312;28;19915;-70
2023/10/29 12:55:56;;;;;;;;;;;14.10;99.90;;;;;;5101290;28;20010;-70
2023/10/29 12:58:21;;;;;;;;;;;14.10;99.90;;;;;;5108630;28;19915;-70
2023/10/29 13:00:47;;;;;;;;;;;14.10;99.90;;;;;;5108193;28;19920;-70
2023/10/29 13:03:13;;;;;;;;;;;14.00;99.90;;;;;;5107004;28;19908;-70
2023/10/29 13:05:38;;;;;;;;;;;14.00;99.90;;;;;;5107281;28;20309;-70
2023/10/29 13:08:08;;;;;;;;;;;14.00;99.90;;;;;;5102822;28;19919;-70
2023/10/29 13:10:35;;;;;;;;;;;14.00;99.90;;;;;;5101104;28;19916;-70
2023/10/29 13:13:01;;;;;;;;;;;14.00;99.90;;;;;;5107870;27;20474;-70
2023/10/29 13:15:27;;;;;;;;;;;14.00;99.90;;;;;;5107750;28;19991;-70
2023/10/29 13:17:53;;;;;;;;;;;13.90;99.90;;;;;;5113158;27;20056;-70
2023/10/29 13:20:20;;;;;;;;;;;13.90;99.90;;;;;;5112781;27;19958;-70
2023/10/29 13:22:46;;;;;;;;;;;13.90;99.90;;;;;;5110517;28;20420;-70
2023/10/29 13:25:12;;;;;;;;;;;13.90;99.90;;;;;;5115048;27;20003;-70
2023/10/29 13:27:39;;;;;;;;;;;13.80;99.90;;;;;;5112450;27;20406;-70
2023/10/29 13:30:07;;;;;;;;;;;13.90;99.90;;;;;;5106792;28;19919;-70
2023/10/29 13:32:33;;;;;;;;;;;13.90;99.90;;;;;;5110715;27;19916;-70
2023/10/29 13:35:00;;;;;;;;;;;13.80;99.90;;;;;;5107078;28;19908;-70
2023/10/29 13:37:26;;;;;;;;;;;13.80;99.90;;;;;;5111982;27;19921;-70
2023/10/29 13:39:52;;;;;;;;;;;13.80;99.90;;;;;;5105670;28;19912;-70
2023/10/29 13:42:18;;;;;;;;;;;13.80;99.90;;;;;;5106893;28;19927;-70
2023/10/29 13:44:44;;;;;;;;;;;13.80;99.90;;;;;;5108819;28;19919;-70
2023/10/29 13:47:09;;;;;;;;;;;13.80;99.90;;;;;;5111308;27;19923;-70
2023/10/29 13:49:35;;;;;;;;;;;13.80;99.90;;;;;;5108724;28;19976;-70
2023/10/29 13:52:00;;;;;;;;;;;13.80;99.90;;;;;;5110316;27;20429;-70
2023/10/29 13:54:26;;;;;;;;;;;13.80;99.90;;;;;;5107340;27;20382;-70
2023/10/29 13:56:51;;;;;;;;;;;13.80;99.90;;;;;;5111174;28;20578;-70
2023/10/29 13:59:18;;;;;;;;;;;13.80;99.90;;;;;;5113662;27;19969;-70
2023/10/29 14:01:43;;;;;;;;;;;13.80;99.90;;;;;;5111340;28;20667;-70
2023/10/29 14:04:09;;;;;;;;;;;13.80;99.90;;;;;;5122388;27;19915;-70
2023/10/29 14:06:35;;;;;;;;;;;13.80;99.90;;;;;;5117337;27;20326;-70
2023/10/29 14:09:00;;;;;;;;;;;13.80;99.90;;;;;;5112279;27;19912;-70
2023/10/29 14:11:26;;;;;;;;;;;13.80;99.90;;;;;;5117600;27;19911;-70